Latest Coastal Weather Observations for Centre Island

IDD60701

Issued at 7:35 am CST Thursday 23 October 2014 (issued every 10 minutes, with the page automatically refreshed every 10 minutes)

About coastal observations | Map of coastal stations | Coastal observations for NT | Marine services | Other Formats
Station Details ID: 014703 Name: CENTRE ISLAND Lat: -15.74 Lon: 136.82 Height: 12.2 m
Data from the previous 72 hours. | See also: Recent months at Centre Island
Date/Time
CST
Temp

°C
Wind Pressure Rain
since 9am
mm
Weather Cloud Vis
km
Sea
Height
m
Swell
Dir
 
Speed
knots
Gust
knots
hPa Trend Height
m
Period
s
Dir
23/07:30am 25.8 S 9 12 1014.4 - 0.0 - - - - - - -
23/07:00am 25.0 S 9 12 1013.9 - 0.0 - - - - - - -
23/06:30am 24.7 S 8 10 1013.5 - 0.0 - - - - - - -
23/06:00am 24.6 SSW 6 8 1013.2 - 0.0 - - - - - - -
23/05:30am 24.6 S 6 8 1012.9 - 0.0 - - - - - - -
23/05:00am 24.7 S 6 9 1012.6 - 0.0 - - - - - - -
23/04:30am 24.9 S 6 9 1012.4 - 0.0 - - - - - - -
23/04:00am 25.1 W 3 6 1012.3 - 0.0 - - - - - - -
23/03:30am 25.0 WSW 4 7 1012.4 - 0.0 - - - - - - -
23/03:00am 25.6 NE 7 9 1012.2 - 0.0 - - - - - - -
23/02:30am 25.2 NE 5 6 1012.6 - 0.0 - - - - - - -
23/02:00am 25.6 NNE 6 9 1012.8 - 0.0 - - - - - - -
23/01:30am 26.0 NNE 10 13 1012.8 - 0.0 - - - - - - -
23/01:00am 26.1 NNE 12 16 1013.2 - 0.0 - - - - - - -
23/12:30am 26.0 NNE 11 16 1013.7 - 0.0 - - - - - - -
23/12:00am 26.1 NNE 11 16 1014.0 - 0.0 - - - - - - -
 
Date/Time
CST
Temp

°C
Wind Pressure Rain
since 9am
mm
Weather Cloud Vis
km
Sea
Height
m
Swell
Dir
 
Speed
knots
Gust
knots
hPa Trend Height
m
Period
s
Dir
22/11:30pm 25.9 NNE 9 13 1014.3 - 0.0 - - - - - - -
22/11:00pm 26.1 NE 11 15 1014.7 - 0.0 - - - - - - -
22/10:30pm 26.2 ENE 13 17 1015.0 - 0.0 - - - - - - -
22/10:00pm 26.3 ENE 13 16 1014.9 - 0.0 - - - - - - -
22/09:30pm 26.5 NE 13 16 1014.5 - 0.0 - - - - - - -
22/09:00pm 26.5 NNE 14 17 1014.1 - 0.0 - - - - - - -
22/08:30pm 26.3 NNE 11 14 1014.0 - 0.0 - - - - - - -
22/08:00pm 26.5 NE 11 14 1014.1 - 0.0 - - - - - - -
22/07:30pm 26.7 NE 11 13 1013.9 - 0.0 - - - - - - -
22/07:00pm 26.8 NE 10 13 1013.7 - 0.0 - - - - - - -
22/06:30pm 27.1 NE 10 14 1013.5 - 0.0 - - - - - - -
22/06:00pm 27.7 NNE 12 15 1013.2 - 0.0 - - - - - - -
22/05:30pm 28.4 NNE 11 14 1012.9 - 0.0 - - - - - - -
22/05:00pm 28.9 NNE 12 15 1012.7 - 0.0 - - - - - - -
22/04:30pm 29.4 NE 13 17 1012.7 - 0.0 - - - - - - -
22/04:00pm 30.0 NNE 13 17 1012.6 - 0.0 - - - - - - -
22/03:30pm 30.4 NE 15 18 1012.7 - 0.0 - - - - - - -
22/03:00pm 31.1 NNE 12 17 1012.9 - 0.0 - - - - - - -
22/02:30pm 31.4 NNE 11 16 1013.2 - 0.0 - - - - - - -
22/02:00pm 31.4 NNE 13 17 1013.3 - 0.0 - - - - - - -
22/01:30pm 31.2 NE 12 15 1013.9 - 0.0 - - - - - - -
22/01:00pm 31.7 NE 12 16 1014.4 - 0.0 - - - - - - -
22/12:30pm 31.5 NNE 13 17 1014.8 - 0.0 - - - - - - -
22/12:00pm 31.3 NE 13 17 1015.2 - 0.0 - - - - - - -
22/11:30am 31.1 NE 14 19 1015.4 - 0.0 - - - - - - -
22/11:00am 31.9 ENE 16 21 1015.7 - 0.0 - - - - - - -
22/10:30am 31.5 ENE 15 20 1015.9 - 0.0 - - - - - - -
22/10:00am 30.1 E 8 14 1015.9 - 0.0 - - - - - - -
22/09:30am 28.8 SE 5 7 1015.9 - 0.0 - - - - - - -
22/09:00am 28.2 SW 6 7 1015.2 - 0.0 - - - - - - -
22/08:30am 27.3 WSW 7 9 1015.1 - 0.0 - - - - - - -
22/08:00am 27.1 S 8 10 1015.1 - 0.0 - - - - - - -
22/07:30am 26.2 SSW 6 8 1014.8 - 0.0 - - - - - - -
22/07:00am 25.5 SSW 7 9 1014.6 - 0.0 - - - - - - -
22/06:30am 25.0 SSW 9 12 1014.3 - 0.0 - - - - - - -
22/06:00am 24.4 SSW 8 11 1014.0 - 0.0 - - - - - - -
22/05:30am 24.4 SSW 9 11 1013.8 - 0.0 - - - - - - -
22/05:00am 24.6 S 9 11 1013.5 - 0.0 - - - - - - -
22/04:30am 24.7 SSW 6 9 1013.1 - 0.0 - - - - - - -
22/04:00am 24.6 WNW 5 6 1013.0 - 0.0 - - - - - - -
22/03:30am 24.7 WNW 5 7 1012.8 - 0.0 - - - - - - -
22/03:00am 24.5 WNW 5 7 1012.8 - 0.0 - - - - - - -
22/02:30am 24.9 SW 5 7 1013.0 - 0.0 - - - - - - -
22/02:00am 24.4 WNW 5 7 1013.1 - 0.0 - - - - - - -
22/01:30am 24.6 NNW 4 6 1013.1 - 0.0 - - - - - - -
22/01:00am 25.0 N 7 9 1013.4 - 0.0 - - - - - - -
22/12:30am 25.2 N 6 8 1013.8 - 0.0 - - - - - - -
22/12:00am 25.5 NNE 7 9 1014.4 - 0.0 - - - - - - -
 
Date/Time
CST
Temp

°C
Wind Pressure Rain
since 9am
mm
Weather Cloud Vis
km
Sea
Height
m
Swell
Dir
 
Speed
knots
Gust
knots
hPa Trend Height
m
Period
s
Dir
21/11:30pm 25.8 NE 7 9 1014.8 - 0.0 - - - - - - -
21/11:00pm 26.1 ENE 11 14 1015.4 - 0.0 - - - - - - -
21/10:30pm 26.3 ENE 11 14 1015.7 - 0.0 - - - - - - -
21/10:00pm 26.3 ENE 11 12 1015.6 - 0.0 - - - - - - -
21/09:30pm 26.7 ENE 11 14 1015.4 - 0.0 - - - - - - -
21/09:00pm 26.6 ENE 10 13 1015.1 - 0.0 - - - - - - -
21/08:30pm 26.7 ENE 11 13 1014.9 - 0.0 - - - - - - -
21/08:00pm 26.8 NE 11 13 1014.6 - 0.0 - - - - - - -
21/07:30pm 26.9 NE 11 14 1014.4 - 0.0 - - - - - - -
21/07:00pm 27.0 NE 12 16 1014.4 - 0.0 - - - - - - -
21/06:30pm 27.2 NE 13 15 1014.2 - 0.0 - - - - - - -
21/06:00pm 27.7 NE 12 15 1013.9 - 0.0 - - - - - - -
21/05:30pm 28.4 NE 14 18 1013.4 - 0.0 - - - - - - -
21/05:00pm 28.9 NE 15 19 1013.2 - 0.0 - - - - - - -
21/04:30pm 29.4 NNE 15 21 1013.0 - 0.0 - - - - - - -
21/04:00pm 30.3 NNE 14 19 1012.9 - 0.0 - - - - - - -
21/03:30pm 30.8 NNE 14 17 1013.1 - 0.0 - - - - - - -
21/03:00pm 31.5 NE 13 16 1013.2 - 0.0 - - - - - - -
21/02:30pm 32.1 NNE 13 18 1013.5 - 0.0 - - - - - - -
21/02:00pm 31.8 NNE 12 16 1013.9 - 0.0 - - - - - - -
21/01:30pm 32.2 NE 9 14 1014.1 - 0.0 - - - - - - -
21/01:00pm 32.1 NE 5 8 1014.6 - 0.0 - - - - - - -
21/12:30pm 31.8 ESE 12 14 1015.1 - 0.0 - - - - - - -
21/12:00pm 31.5 ESE 14 16 1015.6 - 0.0 - - - - - - -
21/11:30am 31.9 E 7 10 1015.9 - 0.0 - - - - - - -
21/11:00am 30.6 ESE 9 11 1016.2 - 0.0 - - - - - - -
21/10:30am 30.0 SE 8 10 1016.4 - 0.0 - - - - - - -
21/10:00am 29.3 ESE 7 9 1016.8 - 0.0 - - - - - - -
21/09:30am 29.1 ESE 8 9 1016.8 - 0.0 - - - - - - -
21/09:00am 28.4 SE 8 9 1016.8 - 0.0 - - - - - - -
21/08:30am 27.4 SW 10 13 1016.3 - 0.0 - - - - - - -
21/08:00am 26.6 SW 10 14 1015.6 - 0.0 - - - - - - -
21/07:30am 26.0 SSW 10 12 1015.4 - 0.0 - - - - - - -
21/07:00am 25.1 SW 10 13 1015.0 - 0.0 - - - - - - -
21/06:30am 24.6 SW 11 14 1014.6 - 0.0 - - - - - - -
21/06:00am 24.2 SW 9 11 1014.4 - 0.0 - - - - - - -
21/05:30am 24.2 SW 9 11 1014.2 - 0.0 - - - - - - -
21/05:00am 24.2 SW 8 9 1013.8 - 0.0 - - - - - - -
21/04:30am 24.3 WSW 7 10 1013.5 - 0.0 - - - - - - -
21/04:00am 24.5 WSW 8 10 1013.4 - 0.0 - - - - - - -
21/03:30am 24.3 SW 7 9 1013.2 - 0.0 - - - - - - -
21/03:00am 24.2 W 5 6 1013.2 - 0.0 - - - - - - -
21/02:30am 23.6 WNW 4 5 1013.1 - 0.0 - - - - - - -
21/02:00am 23.9 NW 3 5 1013.4 - 0.0 - - - - - - -
21/01:30am 24.6 W 3 5 1013.4 - 0.0 - - - - - - -
21/01:00am 24.3 WNW 3 4 1013.7 - 0.0 - - - - - - -
21/12:30am 24.5 NNW 1 4 1014.0 - 0.0 - - - - - - -
21/12:00am 24.9 NE 3 5 1014.4 - 0.0 - - - - - - -
 
Date/Time
CST
Temp

°C
Wind Pressure Rain
since 9am
mm
Weather Cloud Vis
km
Sea
Height
m
Swell
Dir
 
Speed
knots
Gust
knots
hPa Trend Height
m
Period
s
Dir
20/11:30pm 25.4 NE 5 6 1014.6 - 0.0 - - - - - - -
20/11:00pm 25.7 NNE 6 7 1014.9 - 0.0 - - - - - - -
20/10:30pm 25.9 NE 7 10 1015.1 - 0.0 - - - - - - -
20/10:00pm 26.1 NE 9 11 1015.0 - 0.0 - - - - - - -
20/09:30pm 26.1 NE 10 12 1014.8 - 0.0 - - - - - - -
20/09:00pm 26.1 ENE 10 13 1014.6 - 0.0 - - - - - - -
20/08:30pm 26.1 ENE 10 13 1014.4 - 0.0 - - - - - - -
20/08:00pm 26.2 ENE 12 14 1014.2 - 0.0 - - - - - - -
20/07:30pm 26.4 NE 13 16 1014.0 - 0.0 - - - - - - -
20/07:00pm 26.6 NE 12 16 1013.6 - 0.0 - - - - - - -
20/06:30pm 26.8 NE 14 17 1013.3 - 0.0 - - - - - - -
20/06:00pm 27.3 NE 12 15 1013.3 - 0.0 - - - - - - -
20/05:30pm 27.9 NNE 12 16 1013.0 - 0.0 - - - - - - -
20/05:00pm 28.9 NNE 11 15 1012.9 - 0.0 - - - - - - -
20/04:30pm 29.5 NNE 11 15 1012.9 - 0.0 - - - - - - -
20/04:00pm 29.7 NNE 13 17 1012.9 - 0.0 - - - - - - -
20/03:30pm 30.6 NNE 13 15 1013.0 - 0.0 - - - - - - -
20/03:00pm 31.0 NNE 12 16 1013.1 - 0.0 - - - - - - -
20/02:30pm 30.9 NE 12 16 1013.5 - 0.0 - - - - - - -
20/02:00pm 31.0 NNE 13 16 1013.9 - 0.0 - - - - - - -
20/01:30pm 31.0 NNE 12 16 1014.3 - 0.0 - - - - - - -
20/01:00pm 31.0 NNE 11 15 1014.7 - 0.0 - - - - - - -
20/12:30pm 29.9 NNE 12 15 1015.3 - 0.0 - - - - - - -
20/12:00pm 31.3 NE 12 15 1015.9 - 0.0 - - - - - - -
20/11:30am 30.6 NE 14 18 1016.2 - 0.0 - - - - - - -
20/11:00am 31.2 NE 11 17 1016.6 - 0.0 - - - - - - -
20/10:30am 30.5 NE 13 18 1016.6 - 0.0 - - - - - - -
20/10:00am 31.0 ENE 16 19 1016.5 - 0.0 - - - - - - -
20/09:30am 30.4 E 9 17 1016.3 - 0.0 - - - - - - -
20/09:00am 28.9 E 9 11 1016.4 - 0.0 - - - - - - -
20/08:30am 27.9 E 7 9 1016.2 - 0.0 - - - - - - -
20/08:00am 26.7 E 10 15 1016.2 - 0.0 - - - - - - -

Other Formats:

Comma delimited format used in spreadsheet applications
http://www.bom.gov.au/fwo/IDD60701/IDD60701.94248.axf

JavaScript Object Notation format (JSON) in row-major order
http://www.bom.gov.au/fwo/IDD60701/IDD60701.94248.json